Time;durP1;ratioP1;P1;durP2;ratioP2;P2;SDS_P1;SDS_P2;PMS_P1;PMS_P2;Temp;Humidity;BMP_temperature;BMP_pressure;BME280_temperature;BME280_humidity;BME280_pressure;Samples;Min_cycle;Max_cycle;Signal;HPM_P1;HPM_P2
2023/03/30 00:02:29;;;;;;;26.27;19.20;;;9.90;99.90;;;;;;5004859;28;20034;-75
2023/03/30 00:05:01;;;;;;;25.35;18.80;;;9.90;99.90;;;;;;5013937;28;20033;-75
2023/03/30 00:07:30;;;;;;;27.02;19.33;;;9.90;99.90;;;;;;5009628;28;20470;-75
2023/03/30 00:09:57;;;;;;;26.90;19.27;;;9.90;99.90;;;;;;5005991;28;20037;-75
2023/03/30 00:12:23;;;;;;;28.05;19.80;;;9.90;99.90;;;;;;4987680;28;20054;-76
2023/03/30 00:14:49;;;;;;;29.35;20.70;;;9.90;99.90;;;;;;5005612;28;20040;-77
2023/03/30 00:17:16;;;;;;;29.33;18.42;;;9.90;99.90;;;;;;5004298;28;20034;-75
2023/03/30 00:20:07;;;;;;;33.55;20.58;;;9.90;99.90;;;;;;5007432;28;20034;-75
2023/03/30 00:22:34;;;;;;;27.90;19.20;;;9.90;99.90;;;;;;5003414;28;20101;-75
2023/03/30 00:25:00;;;;;;;29.98;20.70;;;9.90;99.90;;;;;;4967315;28;20042;-75
2023/03/30 00:27:26;;;;;;;27.35;18.88;;;9.90;99.90;;;;;;5006249;28;20456;-74
2023/03/30 00:29:51;;;;;;;26.58;19.35;;;9.90;99.90;;;;;;5005931;28;20113;-76
2023/03/30 00:32:17;;;;;;;27.25;18.35;;;9.90;99.90;;;;;;5014527;28;20111;-76
2023/03/30 00:34:43;;;;;;;26.17;18.95;;;9.90;99.90;;;;;;5004456;28;20042;-79
2023/03/30 00:37:08;;;;;;;28.80;18.80;;;9.90;99.90;;;;;;5005963;28;20034;-76
2023/03/30 00:39:34;;;;;;;26.58;18.52;;;9.90;99.90;;;;;;5008553;28;20505;-75
2023/03/30 00:42:00;;;;;;;30.67;18.45;;;9.90;99.90;;;;;;5006743;28;20505;-74
2023/03/30 00:45:00;;;;;;;25.05;17.00;;;9.90;99.90;;;;;;5007697;28;20681;-78
2023/03/30 00:47:28;;;;;;;25.00;17.35;;;9.90;99.90;;;;;;5018350;28;20034;-76
2023/03/30 00:49:54;;;;;;;24.70;18.10;;;9.90;99.90;;;;;;4994230;28;20038;-74
2023/03/30 00:52:23;;;;;;;24.60;17.92;;;9.90;99.90;;;;;;5004372;28;20137;-75
2023/03/30 00:54:51;;;;;;;29.48;18.80;;;9.90;99.90;;;;;;4971096;28;20074;-75
2023/03/30 00:57:21;;;;;;;25.98;17.70;;;9.90;99.90;;;;;;5011563;28;20030;-75
2023/03/30 00:59:49;;;;;;;24.85;17.88;;;9.90;99.90;;;;;;4997136;28;20053;-75
2023/03/30 01:02:15;;;;;;;24.48;18.05;;;9.80;99.90;;;;;;5008032;28;20686;-76
2023/03/30 01:04:41;;;;;;;30.48;17.63;;;9.80;99.90;;;;;;5006492;28;20033;-75
2023/03/30 01:07:11;;;;;;;23.85;17.05;;;9.80;99.90;;;;;;5005212;28;20026;-74
2023/03/30 01:09:41;;;;;;;25.88;17.17;;;9.80;99.90;;;;;;5005581;28;20520;-76
2023/03/30 01:12:08;;;;;;;29.55;17.52;;;9.80;99.90;;;;;;5005168;28;20032;-75
2023/03/30 01:14:34;;;;;;;25.88;17.20;;;9.80;99.90;;;;;;5007249;28;20054;-75
2023/03/30 01:17:25;;;;;;;28.73;17.77;;;9.80;99.90;;;;;;5006094;28;20021;-75
2023/03/30 01:20:11;;;;;;;24.92;16.55;;;9.80;99.90;;;;;;5007897;28;20089;-74
2023/03/30 01:23:14;;;;;;;23.05;16.00;;;9.80;99.90;;;;;;5008838;28;20038;-75
2023/03/30 01:26:15;;;;;;;25.98;17.33;;;9.90;99.90;;;;;;5005461;28;20036;-74
2023/03/30 01:29:21;;;;;;;26.40;17.65;;;9.80;99.90;;;;;;5003852;28;20033;-75
2023/03/30 01:32:21;;;;;;;25.85;17.38;;;9.80;99.90;;;;;;5008588;28;20029;-75
2023/03/30 01:35:09;;;;;;;24.60;16.33;;;9.90;99.90;;;;;;5006926;28;20050;-75
2023/03/30 01:37:56;;;;;;;25.63;17.02;;;9.80;99.90;;;;;;5000259;28;20041;-74
2023/03/30 01:41:15;;;;;;;23.67;15.30;;;9.80;99.90;;;;;;5006021;28;20026;-74
2023/03/30 01:43:49;;;;;;;21.15;15.93;;;9.90;99.90;;;;;;5002853;28;20500;-78
2023/03/30 01:46:48;;;;;;;24.20;15.38;;;9.80;99.90;;;;;;5006117;28;20026;-77
2023/03/30 01:49:36;;;;;;;22.77;15.88;;;9.90;99.90;;;;;;4986202;28;20088;-76
2023/03/30 01:52:21;;;;;;;22.92;16.08;;;9.80;99.90;;;;;;5011135;28;20033;-76
2023/03/30 01:55:03;;;;;;;25.50;16.80;;;9.80;99.90;;;;;;5005960;28;20068;-76
2023/03/30 01:58:10;;;;;;;23.35;15.63;;;9.80;99.90;;;;;;5003989;28;20126;-73
2023/03/30 02:00:40;;;;;;;23.88;16.48;;;9.80;99.90;;;;;;5007433;28;20417;-77
2023/03/30 02:03:13;;;;;;;25.15;16.30;;;9.80;99.90;;;;;;5006476;28;20117;-77
2023/03/30 02:05:40;;;;;;;26.80;17.77;;;9.80;99.90;;;;;;5003408;28;20018;-76
2023/03/30 02:08:14;;;;;;;22.38;15.90;;;9.80;99.90;;;;;;5005203;28;20030;-76
2023/03/30 02:10:42;;;;;;;23.77;16.23;;;9.80;99.90;;;;;;5007800;28;20018;-75
2023/03/30 02:13:09;;;;;;;25.48;17.65;;;9.80;99.90;;;;;;5008737;28;20045;-74
2023/03/30 02:15:44;;;;;;;25.15;16.73;;;9.70;99.90;;;;;;5005151;28;20041;-75
2023/03/30 02:18:10;;;;;;;23.42;15.43;;;9.70;99.90;;;;;;5035869;28;20129;-74
2023/03/30 02:20:38;;;;;;;27.73;17.75;;;9.80;99.90;;;;;;5007095;28;20065;-74
2023/03/30 02:23:05;;;;;;;25.58;17.42;;;9.70;99.90;;;;;;5035095;28;20050;-75
2023/03/30 02:25:33;;;;;;;21.67;16.08;;;9.70;99.90;;;;;;5007886;28;20030;-75
2023/03/30 02:27:59;;;;;;;26.13;16.73;;;9.70;99.90;;;;;;5005596;28;20041;-75
2023/03/30 02:30:30;;;;;;;22.95;15.82;;;9.70;99.90;;;;;;5009102;28;20034;-74
2023/03/30 02:32:56;;;;;;;25.50;17.30;;;9.70;99.90;;;;;;5005980;28;20062;-76
2023/03/30 02:35:43;;;;;;;22.45;15.60;;;9.70;99.90;;;;;;5009665;28;20509;-75
2023/03/30 02:38:27;;;;;;;24.00;16.15;;;9.70;99.90;;;;;;5007813;28;20030;-75
2023/03/30 02:41:11;;;;;;;22.25;15.93;;;9.70;99.90;;;;;;5006169;28;20034;-75
2023/03/30 02:43:42;;;;;;;26.08;16.27;;;9.70;99.90;;;;;;5007299;28;20402;-75
2023/03/30 02:46:35;;;;;;;23.75;17.15;;;9.70;99.90;;;;;;5006386;28;20045;-75
2023/03/30 02:49:10;;;;;;;24.67;16.65;;;9.80;99.90;;;;;;5009039;28;20100;-74
2023/03/30 02:51:54;;;;;;;22.67;15.05;;;9.80;99.90;;;;;;5032222;28;20029;-74
2023/03/30 02:54:51;;;;;;;25.75;16.70;;;9.80;99.90;;;;;;5007893;28;20026;-75
2023/03/30 02:57:48;;;;;;;24.98;17.33;;;9.70;99.90;;;;;;4989970;28;20042;-75
2023/03/30 03:00:50;;;;;;;25.35;16.80;;;9.70;99.90;;;;;;5006467;28;20124;-76
2023/03/30 03:03:26;;;;;;;32.92;17.83;;;9.70;99.90;;;;;;5021435;28;20046;-75
2023/03/30 03:05:54;;;;;;;24.88;17.35;;;9.70;99.90;;;;;;5009324;28;20045;-75
2023/03/30 03:08:23;;;;;;;30.58;18.60;;;9.70;99.90;;;;;;4992503;28;20449;-76
2023/03/30 03:10:50;;;;;;;29.45;17.77;;;9.70;99.90;;;;;;5005996;28;20029;-75
2023/03/30 03:13:19;;;;;;;28.50;17.52;;;9.70;99.90;;;;;;4990012;28;20076;-74
2023/03/30 03:15:45;;;;;;;28.25;17.95;;;9.70;99.90;;;;;;5008061;28;20548;-76
2023/03/30 03:18:11;;;;;;;25.17;17.55;;;9.70;99.90;;;;;;5008714;28;20030;-75
2023/03/30 03:20:39;;;;;;;25.55;17.17;;;9.70;99.90;;;;;;5007438;28;20030;-76
2023/03/30 03:23:05;;;;;;;27.83;17.65;;;9.60;99.90;;;;;;5006149;28;20056;-75
2023/03/30 03:25:31;;;;;;;25.67;18.80;;;9.60;99.90;;;;;;5013746;28;20030;-75
2023/03/30 03:27:58;;;;;;;28.85;18.92;;;9.60;99.90;;;;;;5013662;28;20030;-76
2023/03/30 03:30:23;;;;;;;29.33;17.98;;;9.50;99.90;;;;;;4991549;28;20113;-76
2023/03/30 03:32:50;;;;;;;30.25;18.98;;;9.50;99.90;;;;;;5007236;28;20120;-76
2023/03/30 03:35:16;;;;;;;28.60;17.88;;;9.50;99.90;;;;;;5003708;28;20366;-75
2023/03/30 03:37:42;;;;;;;24.77;17.65;;;9.40;99.90;;;;;;5004979;28;20087;-75
2023/03/30 03:40:11;;;;;;;27.27;17.85;;;9.40;99.90;;;;;;5006984;28;20026;-77
2023/03/30 03:42:37;;;;;;;28.83;18.08;;;9.40;99.90;;;;;;5008737;28;20030;-77
2023/03/30 03:45:04;;;;;;;30.00;18.40;;;9.40;99.90;;;;;;5008583;28;20081;-77
2023/03/30 03:47:34;;;;;;;29.52;17.38;;;9.40;99.90;;;;;;5006090;28;20034;-76
2023/03/30 03:50:02;;;;;;;28.80;17.77;;;9.50;99.90;;;;;;5008242;28;20034;-77
2023/03/30 03:52:31;;;;;;;24.75;17.13;;;9.50;99.90;;;;;;5008340;28;20025;-76
2023/03/30 03:54:57;;;;;;;23.90;15.98;;;9.50;99.90;;;;;;5005575;28;20050;-75
2023/03/30 03:57:23;;;;;;;24.75;16.60;;;9.50;99.90;;;;;;5016847;28;20613;-76
2023/03/30 03:59:50;;;;;;;25.88;16.80;;;9.50;99.90;;;;;;5007537;28;20116;-75
2023/03/30 04:02:16;;;;;;;29.75;17.35;;;9.50;99.90;;;;;;5006078;28;20037;-78
2023/03/30 04:04:41;;;;;;;26.67;17.58;;;9.50;99.90;;;;;;5006073;28;20038;-75
2023/03/30 04:07:07;;;;;;;26.17;17.83;;;9.50;99.90;;;;;;5006341;28;20030;-75
2023/03/30 04:09:33;;;;;;;25.30;16.63;;;9.50;99.90;;;;;;5005433;28;20805;-76
2023/03/30 04:11:58;;;;;;;27.83;18.15;;;9.50;99.90;;;;;;5006148;28;20038;-76
2023/03/30 04:14:24;;;;;;;27.33;17.27;;;9.50;99.90;;;;;;5007187;28;20021;-76
2023/03/30 04:16:50;;;;;;;23.65;16.33;;;9.50;99.90;;;;;;5006222;28;20097;-76
2023/03/30 04:19:16;;;;;;;29.73;17.23;;;9.50;99.90;;;;;;5006521;28;20041;-76
2023/03/30 04:21:45;;;;;;;25.95;16.73;;;9.60;99.90;;;;;;5006624;28;20562;-77
2023/03/30 04:24:12;;;;;;;25.92;17.20;;;9.60;99.90;;;;;;5006144;28;20877;-76
2023/03/30 04:26:40;;;;;;;26.88;15.68;;;9.60;99.90;;;;;;5006439;28;20402;-75
2023/03/30 04:29:06;;;;;;;26.05;16.92;;;9.60;99.90;;;;;;5014365;28;20088;-76
2023/03/30 04:31:37;;;;;;;23.70;15.95;;;9.60;99.90;;;;;;5006417;28;20026;-77
2023/03/30 04:34:03;;;;;;;25.50;16.50;;;9.60;99.90;;;;;;5008922;28;20034;-75
2023/03/30 04:36:30;;;;;;;24.02;15.18;;;9.50;99.90;;;;;;5004031;28;20386;-77
2023/03/30 04:39:02;;;;;;;22.63;15.75;;;9.50;99.90;;;;;;4989532;28;20506;-75
2023/03/30 04:41:32;;;;;;;24.52;16.30;;;9.50;99.90;;;;;;4990509;28;20029;-75
2023/03/30 04:44:03;;;;;;;25.55;16.83;;;9.40;99.90;;;;;;5014064;28;20064;-74
2023/03/30 04:46:28;;;;;;;24.63;16.67;;;9.50;99.90;;;;;;5003924;28;20026;-73
2023/03/30 04:48:54;;;;;;;23.45;15.80;;;9.40;99.90;;;;;;5006211;28;20029;-73
2023/03/30 04:51:20;;;;;;;24.20;15.88;;;9.50;99.90;;;;;;5005221;28;20022;-75
2023/03/30 04:53:46;;;;;;;22.48;15.00;;;9.50;99.90;;;;;;5002634;28;20050;-74
2023/03/30 04:56:12;;;;;;;20.55;14.25;;;9.50;99.90;;;;;;5004301;28;20065;-74
2023/03/30 04:58:38;;;;;;;22.67;14.40;;;9.50;99.90;;;;;;5006202;28;20045;-74
2023/03/30 05:01:03;;;;;;;23.65;14.88;;;9.50;99.90;;;;;;5005658;28;20453;-74
2023/03/30 05:03:29;;;;;;;22.75;14.27;;;9.50;99.90;;;;;;5005394;28;20084;-75
2023/03/30 05:05:55;;;;;;;23.20;14.00;;;9.50;99.90;;;;;;5013004;28;20449;-75
2023/03/30 05:08:22;;;;;;;22.40;14.60;;;9.50;99.90;;;;;;5007529;28;20021;-73
2023/03/30 05:10:48;;;;;;;23.23;14.57;;;9.50;99.90;;;;;;4991358;28;20026;-75
2023/03/30 05:13:14;;;;;;;24.17;15.25;;;9.50;99.90;;;;;;5004995;28;20036;-74
2023/03/30 05:15:40;;;;;;;20.45;14.23;;;9.50;99.90;;;;;;4989738;28;20026;-74
2023/03/30 05:18:06;;;;;;;20.83;14.18;;;9.60;99.90;;;;;;4986691;28;20061;-73
2023/03/30 05:20:32;;;;;;;22.25;13.35;;;9.60;99.90;;;;;;5003844;28;20595;-76
2023/03/30 05:22:58;;;;;;;23.25;13.43;;;9.60;99.90;;;;;;5003525;28;20100;-74
2023/03/30 05:25:24;;;;;;;21.45;14.00;;;9.60;99.90;;;;;;5001269;28;20486;-76
2023/03/30 05:27:50;;;;;;;20.27;13.23;;;9.60;99.90;;;;;;5009124;28;20099;-74
2023/03/30 05:30:16;;;;;;;22.33;13.95;;;9.60;99.90;;;;;;5001607;28;20475;-74
2023/03/30 05:32:42;;;;;;;21.17;13.05;;;9.60;99.90;;;;;;5004050;28;20026;-75
2023/03/30 05:35:08;;;;;;;19.77;13.25;;;9.70;99.90;;;;;;5005911;28;20560;-75
2023/03/30 05:37:34;;;;;;;21.25;13.07;;;9.70;99.90;;;;;;5001084;28;20033;-75
2023/03/30 05:39:59;;;;;;;18.30;13.13;;;9.70;99.90;;;;;;4996809;28;20429;-76
2023/03/30 05:42:26;;;;;;;20.58;12.32;;;9.80;99.90;;;;;;4994517;28;20068;-76
2023/03/30 05:44:52;;;;;;;20.20;12.70;;;9.80;99.90;;;;;;5001494;28;20145;-74
2023/03/30 05:47:18;;;;;;;20.65;13.02;;;9.80;99.90;;;;;;5009199;28;20101;-74
2023/03/30 05:49:43;;;;;;;21.90;11.88;;;9.80;99.90;;;;;;4993701;28;20029;-74
2023/03/30 05:52:10;;;;;;;18.88;12.27;;;9.80;99.90;;;;;;5012514;28;20069;-75
2023/03/30 05:54:36;;;;;;;20.40;12.13;;;9.80;99.90;;;;;;5009262;28;20044;-75
2023/03/30 05:57:02;;;;;;;18.65;11.77;;;9.80;99.90;;;;;;5008519;28;20037;-73
2023/03/30 05:59:28;;;;;;;17.60;10.05;;;9.90;99.90;;;;;;5012902;28;20551;-73
2023/03/30 06:01:54;;;;;;;18.17;9.50;;;9.90;99.90;;;;;;5005585;28;20032;-74
2023/03/30 06:04:21;;;;;;;14.82;10.20;;;10.00;99.90;;;;;;5008592;28;20029;-74
2023/03/30 06:06:46;;;;;;;21.85;9.60;;;10.00;99.90;;;;;;5010537;28;20037;-74
2023/03/30 06:09:12;;;;;;;19.25;9.43;;;10.00;99.90;;;;;;5009239;28;20037;-75
2023/03/30 06:11:38;;;;;;;17.95;9.90;;;10.00;99.90;;;;;;5009746;28;20061;-73
2023/03/30 06:14:03;;;;;;;14.10;8.52;;;10.00;99.90;;;;;;5010416;28;20552;-74
2023/03/30 06:16:30;;;;;;;23.80;9.10;;;10.00;99.90;;;;;;5012129;28;20559;-76
2023/03/30 06:18:57;;;;;;;13.65;8.90;;;10.10;99.90;;;;;;5008255;28;20037;-74
2023/03/30 06:21:23;;;;;;;14.25;7.78;;;10.10;99.90;;;;;;5012724;28;20040;-75
2023/03/30 06:23:49;;;;;;;11.88;7.10;;;10.20;99.90;;;;;;5015934;28;20045;-75
2023/03/30 06:26:14;;;;;;;14.48;7.72;;;10.20;99.90;;;;;;5011925;28;20113;-74
2023/03/30 06:28:40;;;;;;;9.98;6.72;;;10.30;99.90;;;;;;5011931;28;20036;-75
2023/03/30 06:31:10;;;;;;;17.48;8.95;;;10.30;99.90;;;;;;5019839;28;20349;-75
2023/03/30 06:33:37;;;;;;;18.10;8.57;;;10.30;99.90;;;;;;5014171;28;20117;-74
2023/03/30 06:36:03;;;;;;;17.98;8.35;;;10.30;99.90;;;;;;5015669;28;20044;-74
2023/03/30 06:38:29;;;;;;;15.02;8.68;;;10.30;99.90;;;;;;5015520;28;20033;-74
2023/03/30 06:40:55;;;;;;;12.18;8.07;;;10.40;99.90;;;;;;5013800;28;20037;-74
2023/03/30 06:43:23;;;;;;;15.15;8.18;;;10.50;99.90;;;;;;5007102;28;20034;-76
2023/03/30 06:45:51;;;;;;;12.15;7.80;;;10.50;99.90;;;;;;4992901;28;20375;-75
2023/03/30 06:48:18;;;;;;;10.35;7.53;;;10.60;99.90;;;;;;5010348;28;20061;-75
2023/03/30 06:50:48;;;;;;;12.10;7.07;;;10.60;99.90;;;;;;5013086;28;20030;-75
2023/03/30 06:53:14;;;;;;;15.15;7.07;;;10.70;99.90;;;;;;5019286;28;20111;-75
2023/03/30 06:55:40;;;;;;;10.23;6.57;;;10.80;99.90;;;;;;5011400;28;20041;-74
2023/03/30 06:58:06;;;;;;;13.90;7.13;;;10.90;99.90;;;;;;5006975;28;20036;-74
2023/03/30 07:00:34;;;;;;;11.20;6.57;;;11.00;99.90;;;;;;5006497;28;20073;-74
2023/03/30 07:02:59;;;;;;;11.55;6.80;;;11.10;99.90;;;;;;5010542;28;20057;-75
2023/03/30 07:05:28;;;;;;;9.75;6.32;;;11.10;99.90;;;;;;5009775;28;20045;-77
2023/03/30 07:07:55;;;;;;;12.82;6.90;;;11.10;99.90;;;;;;5009022;28;20024;-75
2023/03/30 07:10:21;;;;;;;11.60;6.40;;;11.20;99.90;;;;;;5008878;28;20089;-74
2023/03/30 07:12:47;;;;;;;14.25;6.07;;;11.30;99.90;;;;;;5010470;28;20018;-75
2023/03/30 07:15:14;;;;;;;13.13;6.45;;;11.30;99.90;;;;;;5006056;28;20033;-74
2023/03/30 07:17:40;;;;;;;10.85;5.85;;;11.30;99.90;;;;;;5008420;28;20034;-74
2023/03/30 07:20:07;;;;;;;13.88;6.55;;;11.40;99.90;;;;;;5010967;28;20524;-75
2023/03/30 07:22:34;;;;;;;10.70;5.63;;;11.40;99.90;;;;;;5006759;28;20382;-73
2023/03/30 07:25:00;;;;;;;12.95;5.93;;;11.40;99.90;;;;;;5007829;28;20114;-73
2023/03/30 07:27:26;;;;;;;11.10;5.85;;;11.40;99.90;;;;;;5008853;28;20104;-74
2023/03/30 07:29:53;;;;;;;12.70;5.85;;;11.40;99.90;;;;;;5009626;28;20030;-74
2023/03/30 07:32:19;;;;;;;8.88;5.45;;;11.50;99.90;;;;;;5007568;28;20053;-75
2023/03/30 07:34:45;;;;;;;13.02;5.60;;;11.50;99.90;;;;;;5010403;28;20087;-74
2023/03/30 07:37:12;;;;;;;9.82;5.35;;;11.50;99.90;;;;;;5010136;28;20029;-74
2023/03/30 07:39:37;;;;;;;13.18;5.65;;;11.60;99.90;;;;;;5006356;28;20406;-74
2023/03/30 07:42:03;;;;;;;10.70;5.82;;;11.60;99.90;;;;;;4989532;28;20033;-75
2023/03/30 07:44:29;;;;;;;8.00;4.88;;;11.60;99.90;;;;;;5031315;28;20025;-75
2023/03/30 07:46:56;;;;;;;10.82;5.80;;;11.60;99.90;;;;;;5008728;28;20763;-75
2023/03/30 07:49:22;;;;;;;16.52;5.80;;;11.60;99.90;;;;;;5009464;28;20398;-75
2023/03/30 07:51:48;;;;;;;11.77;6.10;;;11.60;99.90;;;;;;5009376;28;20044;-73
2023/03/30 07:54:14;;;;;;;11.40;5.80;;;11.60;99.90;;;;;;5005923;28;20065;-74
2023/03/30 07:56:41;;;;;;;8.77;5.00;;;11.60;99.90;;;;;;5006750;28;20033;-74
2023/03/30 07:59:08;;;;;;;14.70;6.65;;;11.70;99.90;;;;;;5010257;28;20034;-74
2023/03/30 08:01:35;;;;;;;11.77;5.70;;;11.70;99.90;;;;;;5009943;28;20061;-74
2023/03/30 08:04:01;;;;;;;11.52;5.07;;;11.70;99.90;;;;;;5009025;28;20030;-75
2023/03/30 08:06:27;;;;;;;10.88;5.25;;;11.80;99.90;;;;;;5009210;28;20100;-74
2023/03/30 08:08:54;;;;;;;11.65;5.20;;;11.80;99.90;;;;;;5010317;28;20022;-74
2023/03/30 08:11:21;;;;;;;16.92;5.43;;;11.90;99.90;;;;;;5010006;28;20034;-73
2023/03/30 08:13:47;;;;;;;10.95;5.05;;;11.90;99.90;;;;;;5008424;28;20033;-75
2023/03/30 08:16:13;;;;;;;10.20;4.88;;;11.90;99.90;;;;;;5010128;28;20030;-74
2023/03/30 08:18:42;;;;;;;9.60;5.47;;;11.90;99.90;;;;;;5008933;28;20067;-75
2023/03/30 08:21:09;;;;;;;9.30;5.00;;;12.00;99.90;;;;;;5008908;28;20115;-75
2023/03/30 08:23:35;;;;;;;11.25;4.95;;;12.00;99.90;;;;;;5032384;28;20030;-74
2023/03/30 08:26:01;;;;;;;7.53;4.47;;;12.00;99.90;;;;;;5008044;28;20084;-74
2023/03/30 08:28:27;;;;;;;12.43;5.15;;;12.10;99.90;;;;;;5007658;28;20025;-74
2023/03/30 08:30:53;;;;;;;7.90;4.95;;;12.10;99.90;;;;;;5009122;28;20037;-74
2023/03/30 08:33:21;;;;;;;8.70;4.60;;;12.20;99.90;;;;;;5013718;28;20068;-73
2023/03/30 08:35:48;;;;;;;13.15;4.70;;;12.20;99.90;;;;;;5009108;28;20026;-74
2023/03/30 08:38:16;;;;;;;9.18;4.78;;;12.30;99.90;;;;;;5010120;28;20022;-74
2023/03/30 08:40:49;;;;;;;8.95;4.43;;;12.30;99.90;;;;;;5031591;28;20026;-73
2023/03/30 08:43:43;;;;;;;9.75;4.97;;;12.20;99.90;;;;;;5007718;28;20140;-74
2023/03/30 08:46:14;;;;;;;8.68;4.53;;;12.20;99.90;;;;;;5031358;28;20092;-74
2023/03/30 08:48:41;;;;;;;7.93;5.10;;;12.20;99.90;;;;;;5032790;28;20034;-74
2023/03/30 08:51:21;;;;;;;10.25;5.03;;;12.10;99.90;;;;;;5008991;28;20387;-75
2023/03/30 08:53:53;;;;;;;9.50;4.15;;;12.20;99.90;;;;;;5009375;28;20026;-75
2023/03/30 08:56:32;;;;;;;753.10;474.83;;;12.20;99.90;;;;;;5008399;28;20076;-74
2023/03/30 08:59:10;;;;;;;1140.80;669.17;;;12.20;99.90;;;;;;5009046;28;20033;-73
2023/03/30 09:02:11;;;;;;;253.27;165.40;;;12.40;99.90;;;;;;5005590;28;20107;-73
2023/03/30 09:04:55;;;;;;;12.48;7.18;;;12.50;99.90;;;;;;5008632;28;20055;-74
2023/03/30 09:07:24;;;;;;;11.77;4.63;;;12.60;99.90;;;;;;5017290;28;20046;-74
2023/03/30 09:09:51;;;;;;;9.23;4.68;;;12.70;99.90;;;;;;5009065;28;20121;-74
2023/03/30 09:12:37;;;;;;;6.78;4.35;;;12.80;99.90;;;;;;5033783;28;20033;-74
2023/03/30 09:15:25;;;;;;;9.93;6.53;;;13.00;99.90;;;;;;5008159;28;20038;-74
2023/03/30 09:18:00;;;;;;;8.75;4.55;;;13.10;99.90;;;;;;5029627;28;20022;-75
2023/03/30 09:20:29;;;;;;;8.98;4.35;;;13.20;99.90;;;;;;5008691;28;20037;-74
2023/03/30 09:22:58;;;;;;;10.90;4.13;;;13.20;99.90;;;;;;5008430;28;20057;-74
2023/03/30 09:26:01;;;;;;;11.15;4.40;;;13.20;99.90;;;;;;5009211;28;20088;-75
2023/03/30 09:28:30;;;;;;;11.27;5.03;;;13.30;99.90;;;;;;5007456;28;20506;-74
2023/03/30 09:31:00;;;;;;;10.52;5.45;;;13.30;99.90;;;;;;5008321;28;20541;-74
2023/03/30 09:33:42;;;;;;;8.77;4.38;;;13.40;99.90;;;;;;5009474;28;20026;-74
2023/03/30 09:36:10;;;;;;;8.60;4.10;;;13.30;99.90;;;;;;5007287;28;20030;-74
2023/03/30 09:38:40;;;;;;;11.40;4.55;;;13.20;99.90;;;;;;5008086;28;20036;-74
2023/03/30 09:41:42;;;;;;;10.80;4.50;;;13.20;99.90;;;;;;5007581;28;20066;-75
2023/03/30 09:44:32;;;;;;;11.38;4.82;;;13.30;99.90;;;;;;5032874;28;20064;-75
2023/03/30 09:46:59;;;;;;;9.02;4.22;;;13.20;99.90;;;;;;5008526;28;20413;-75
2023/03/30 09:49:36;;;;;;;9.82;4.70;;;13.30;99.90;;;;;;5027554;28;20133;-75
2023/03/30 09:52:07;;;;;;;10.00;4.43;;;13.20;99.90;;;;;;5006331;28;20129;-75
2023/03/30 09:54:40;;;;;;;15.75;4.85;;;13.20;99.90;;;;;;5004181;28;20405;-74
2023/03/30 09:57:31;;;;;;;10.30;4.60;;;13.20;99.90;;;;;;5004499;28;20223;-74
2023/03/30 09:59:59;;;;;;;9.30;3.95;;;13.30;99.90;;;;;;5008945;28;20505;-74
2023/03/30 10:02:29;;;;;;;6.70;4.00;;;13.30;99.90;;;;;;5007364;28;20108;-73
2023/03/30 10:05:01;;;;;;;7.05;3.55;;;13.50;99.90;;;;;;4989132;28;20065;-74
2023/03/30 10:07:32;;;;;;;7.13;3.72;;;13.70;99.90;;;;;;5005966;28;20406;-74
2023/03/30 10:10:11;;;;;;;7.80;3.67;;;13.90;99.90;;;;;;5005842;28;20033;-74
2023/03/30 10:12:36;;;;;;;8.60;3.28;;;14.10;99.90;;;;;;5007250;28;20068;-74
2023/03/30 10:15:03;;;;;;;8.35;3.15;;;14.20;99.90;;;;;;5017215;28;20041;-74
2023/03/30 10:17:29;;;;;;;8.77;3.15;;;14.20;99.90;;;;;;5019992;28;20037;-75
2023/03/30 10:20:29;;;;;;;5.80;3.35;;;14.30;99.90;;;;;;5035235;28;20038;-75
2023/03/30 10:23:12;;;;;;;7.90;3.20;;;14.30;99.90;;;;;;5003651;28;20111;-75
2023/03/30 10:25:40;;;;;;;6.80;3.42;;;14.20;99.90;;;;;;5006293;28;20530;-74
2023/03/30 10:28:20;;;;;;;7.55;3.90;;;14.10;99.90;;;;;;5003771;28;20038;-75
2023/03/30 10:30:52;;;;;;;6.88;3.40;;;14.00;99.90;;;;;;5006005;28;20034;-75
2023/03/30 10:33:18;;;;;;;9.65;3.83;;;14.00;99.90;;;;;;5010796;28;20062;-75
2023/03/30 10:35:47;;;;;;;8.60;3.55;;;13.80;99.90;;;;;;5010598;28;20113;-75
2023/03/30 10:38:14;;;;;;;6.90;2.92;;;13.80;99.90;;;;;;5012465;28;20026;-75
2023/03/30 10:40:43;;;;;;;8.88;2.97;;;13.90;99.90;;;;;;5034322;28;20040;-75
2023/03/30 10:43:19;;;;;;;7.70;3.17;;;13.90;99.90;;;;;;5008580;28;20049;-75
2023/03/30 10:45:54;;;;;;;9.55;3.40;;;14.00;99.90;;;;;;5011562;28;20030;-75
2023/03/30 10:48:49;;;;;;;8.05;3.03;;;14.00;99.90;;;;;;5011228;28;20140;-75
2023/03/30 10:51:46;;;;;;;10.10;3.50;;;14.10;99.90;;;;;;5017017;28;20030;-75
2023/03/30 10:54:28;;;;;;;6.25;3.22;;;14.10;99.90;;;;;;5010906;28;20239;-75
2023/03/30 10:56:59;;;;;;;9.27;3.05;;;14.00;99.90;;;;;;5009577;28;20498;-74
2023/03/30 10:59:53;;;;;;;5.55;3.08;;;14.00;99.90;;;;;;5008339;28;20228;-74
2023/03/30 11:02:48;;;;;;;8.10;3.67;;;14.00;99.90;;;;;;5011145;28;20052;-73
2023/03/30 11:05:28;;;;;;;7.38;3.33;;;13.90;99.90;;;;;;5010575;28;20045;-74
2023/03/30 11:08:06;;;;;;;8.15;3.80;;;14.00;99.90;;;;;;5009786;28;20033;-74
2023/03/30 11:10:41;;;;;;;9.48;3.47;;;14.00;99.90;;;;;;5010903;28;20033;-74
2023/03/30 11:13:20;;;;;;;10.07;2.80;;;14.20;99.90;;;;;;5009182;28;20032;-74
2023/03/30 11:15:52;;;;;;;8.82;2.92;;;14.20;99.90;;;;;;5009730;28;20030;-74
2023/03/30 11:18:36;;;;;;;5.70;1.80;;;14.30;99.90;;;;;;5009795;28;20030;-74
2023/03/30 11:21:23;;;;;;;10.35;2.22;;;14.50;99.90;;;;;;5010138;28;20021;-74
2023/03/30 11:23:55;;;;;;;5.25;2.20;;;14.80;99.90;;;;;;5009772;28;20081;-74
2023/03/30 11:26:40;;;;;;;8.75;2.28;;;15.00;99.90;;;;;;5009882;28;20049;-74
2023/03/30 11:29:28;;;;;;;7.75;1.85;;;15.00;99.90;;;;;;5010610;28;20034;-75
2023/03/30 11:32:30;;;;;;;7.25;2.28;;;15.10;99.90;;;;;;5008591;28;20034;-75
2023/03/30 11:35:17;;;;;;;7.25;1.50;;;15.30;99.90;;;;;;5009449;28;20065;-75
2023/03/30 11:38:04;;;;;;;4.47;1.42;;;15.30;99.90;;;;;;5010841;28;20119;-76
2023/03/30 11:40:45;;;;;;;5.25;1.77;;;15.30;99.90;;;;;;5011353;28;20026;-75
2023/03/30 11:43:19;;;;;;;9.32;1.58;;;15.50;99.90;;;;;;5008571;28;20033;-74
2023/03/30 11:45:50;;;;;;;5.88;1.38;;;15.70;99.90;;;;;;5009402;28;20037;-74
2023/03/30 11:48:16;;;;;;;6.03;1.42;;;15.90;99.90;;;;;;5007972;28;20034;-75
2023/03/30 11:51:05;;;;;;;7.30;1.63;;;16.10;99.90;;;;;;5008897;28;20036;-74
2023/03/30 11:53:49;;;;;;;4.68;1.35;;;15.80;99.90;;;;;;5008137;28;20040;-74
2023/03/30 11:56:37;;;;;;;5.28;1.60;;;15.70;99.90;;;;;;5034585;28;20116;-75
2023/03/30 11:59:30;;;;;;;5.10;1.35;;;15.60;99.90;;;;;;5031869;28;20671;-75
2023/03/30 12:01:56;;;;;;;7.13;1.73;;;15.50;99.90;;;;;;5023159;28;20603;-75
2023/03/30 12:04:41;;;;;;;6.65;1.48;;;15.30;99.90;;;;;;5003443;28;20125;-75
2023/03/30 12:07:18;;;;;;;5.43;1.83;;;15.20;99.90;;;;;;5008700;28;20034;-75
2023/03/30 12:09:51;;;;;;;6.22;1.92;;;15.10;99.90;;;;;;5008887;28;20392;-74
2023/03/30 12:12:35;;;;;;;8.80;1.98;;;14.90;99.90;;;;;;5010548;28;20072;-75
2023/03/30 12:15:14;;;;;;;5.80;1.95;;;14.90;99.90;;;;;;4991933;28;20087;-74
2023/03/30 12:17:52;;;;;;;10.20;2.28;;;14.70;99.90;;;;;;5009443;28;20410;-74
2023/03/30 12:20:40;;;;;;;15.43;2.10;;;14.40;99.90;;;;;;4993262;28;20077;-76
2023/03/30 12:23:21;;;;;;;9.48;2.13;;;14.00;99.90;;;;;;5015393;28;20034;-75
2023/03/30 12:26:06;;;;;;;336.48;180.40;;;13.60;99.90;;;;;;4991765;28;20034;-73
2023/03/30 12:29:05;;;;;;;14.50;6.20;;;13.40;99.90;;;;;;5007659;28;20022;-75
2023/03/30 12:31:49;;;;;;;25.98;12.50;;;13.30;99.90;;;;;;5001119;28;20513;-75
2023/03/30 12:34:15;;;;;;;12.52;2.80;;;13.30;99.90;;;;;;5011290;28;20037;-74
2023/03/30 12:36:45;;;;;;;14.48;2.75;;;13.40;99.90;;;;;;5008992;28;20024;-75
2023/03/30 12:39:29;;;;;;;12.27;2.00;;;13.90;99.90;;;;;;5009175;28;20037;-75
2023/03/30 12:42:08;;;;;;;13.43;2.67;;;14.20;99.90;;;;;;5007237;28;20289;-75
2023/03/30 12:44:51;;;;;;;11.20;2.85;;;14.30;99.90;;;;;;5010408;28;20025;-75
2023/03/30 12:47:42;;;;;;;14.25;2.95;;;14.40;99.90;;;;;;5010353;28;20034;-75
2023/03/30 12:50:23;;;;;;;10.77;2.65;;;14.40;99.90;;;;;;5008986;28;20021;-76
2023/03/30 12:53:05;;;;;;;;;;;14.40;99.90;;;;;;5012017;28;20034;-74
2023/03/30 12:55:42;;;;;;;11.50;2.35;;;14.50;99.90;;;;;;5008709;28;19913;-74
2023/03/30 12:58:28;;;;;;;13.95;3.10;;;14.60;99.90;;;;;;5008994;28;20034;-74
2023/03/30 13:01:06;;;;;;;12.50;2.80;;;14.50;99.90;;;;;;5009783;28;20034;-75
2023/03/30 13:03:38;;;;;;;15.30;3.53;;;14.30;99.90;;;;;;5009694;28;20108;-74
2023/03/30 13:06:15;;;;;;;16.05;2.92;;;14.30;99.90;;;;;;5005657;28;20025;-74
2023/03/30 13:08:41;;;;;;;11.35;2.85;;;14.40;99.90;;;;;;4991055;28;20120;-74